createdAt,value
2018-04-17T00:00:53.323Z,1014.94
2018-04-17T00:01:53.339Z,1014.95
2018-04-17T00:02:53.362Z,1014.95
2018-04-17T00:03:53.384Z,1014.98
2018-04-17T00:04:53.403Z,1014.96
2018-04-17T00:05:53.424Z,1014.97
2018-04-17T00:06:53.444Z,1015.01
2018-04-17T00:07:53.462Z,1014.95
2018-04-17T00:08:53.485Z,1014.96
2018-04-17T00:09:53.501Z,1014.92
2018-04-17T00:10:53.525Z,1014.96
2018-04-17T00:11:53.548Z,1015.00
2018-04-17T00:12:53.562Z,1014.96
2018-04-17T00:13:53.583Z,1015.00
2018-04-17T00:14:53.608Z,1014.96
2018-04-17T00:15:53.627Z,1015.00
2018-04-17T00:16:53.643Z,1014.98
2018-04-17T00:17:53.709Z,1015.00
2018-04-17T00:18:53.679Z,1014.98
2018-04-17T00:19:53.700Z,1014.99
2018-04-17T00:20:53.722Z,1014.98
2018-04-17T00:21:53.739Z,1015.00
2018-04-17T00:22:53.762Z,1015.08
2018-04-17T00:23:53.776Z,1015.09
2018-04-17T00:24:53.806Z,1015.11
2018-04-17T00:25:53.816Z,1015.09
2018-04-17T00:26:53.843Z,1015.11
2018-04-17T00:27:53.866Z,1015.10
2018-04-17T00:28:53.876Z,1015.11
2018-04-17T00:29:53.898Z,1015.14
2018-04-17T00:30:53.915Z,1015.17
2018-04-17T00:31:53.941Z,1015.13
2018-04-17T00:32:53.963Z,1015.10
2018-04-17T00:33:53.974Z,1015.10
2018-04-17T00:34:54.003Z,1015.15
2018-04-17T00:35:54.018Z,1015.11
2018-04-17T00:36:54.043Z,1015.08
2018-04-17T00:37:54.065Z,1015.13
2018-04-17T00:38:54.076Z,1015.15
2018-04-17T00:39:54.095Z,1015.10
2018-04-17T00:40:54.119Z,1015.14
2018-04-17T00:41:54.140Z,1015.14
2018-04-17T00:42:54.153Z,1015.17
2018-04-17T00:43:54.181Z,1015.15
2018-04-17T00:44:54.202Z,1015.13
2018-04-17T00:45:54.217Z,1015.13
2018-04-17T00:46:54.240Z,1015.14
2018-04-17T00:47:54.260Z,1015.12
2018-04-17T00:48:54.276Z,1015.15
2018-04-17T00:49:54.300Z,1015.15
2018-04-17T00:50:54.317Z,1015.18
2018-04-17T00:51:54.340Z,1015.14
2018-04-17T00:52:54.357Z,1015.16
2018-04-17T00:53:54.381Z,1015.19
2018-04-17T00:54:54.392Z,1015.17
2018-04-17T00:55:54.420Z,1015.19
2018-04-17T00:56:54.435Z,1015.20
2018-04-17T00:57:54.451Z,1015.25
2018-04-17T00:58:54.479Z,1015.26
2018-04-17T00:59:54.494Z,1015.21
2018-04-17T01:00:54.510Z,1015.25
2018-04-17T01:01:54.539Z,1015.23
2018-04-17T01:02:54.559Z,1015.31
2018-04-17T01:03:54.570Z,1015.30
2018-04-17T01:04:54.599Z,1015.33
2018-04-17T01:05:54.614Z,1015.34
2018-04-17T01:06:54.637Z,1015.37
2018-04-17T01:07:54.655Z,1015.36
2018-04-17T01:08:54.671Z,1015.35
2018-04-17T01:09:54.694Z,1015.35
2018-04-17T01:10:54.711Z,1015.32
2018-04-17T01:11:54.730Z,1015.36
2018-04-17T01:12:54.754Z,1015.34
2018-04-17T01:13:54.770Z,1015.33
2018-04-17T01:14:54.798Z,1015.38
2018-04-17T01:15:54.814Z,1015.37
2018-04-17T01:16:54.831Z,1015.35
2018-04-17T01:17:54.853Z,1015.40
2018-04-17T01:18:54.865Z,1015.38
2018-04-17T01:19:54.890Z,1015.36
2018-04-17T01:20:54.908Z,1015.37
2018-04-17T01:21:54.924Z,1015.38
2018-04-17T01:22:54.952Z,1015.42
2018-04-17T01:23:54.964Z,1015.47
2018-04-17T01:24:54.991Z,1015.48
2018-04-17T01:25:55.009Z,1015.50
2018-04-17T01:26:55.024Z,1015.49
2018-04-17T01:27:55.051Z,1015.48
2018-04-17T01:28:55.062Z,1015.49
2018-04-17T01:29:55.084Z,1015.48
2018-04-17T01:30:55.106Z,1015.52
2018-04-17T01:31:55.121Z,1015.51
2018-04-17T01:32:55.150Z,1015.50
2018-04-17T01:33:55.167Z,1015.52
2018-04-17T01:34:55.187Z,1015.54
2018-04-17T01:35:55.207Z,1015.58
2018-04-17T01:36:55.218Z,1015.58
2018-04-17T01:37:55.246Z,1015.59
2018-04-17T01:38:55.257Z,1015.63
2018-04-17T01:39:55.279Z,1015.61
2018-04-17T01:40:55.301Z,1015.61
2018-04-17T01:41:55.319Z,1015.63
2018-04-17T01:42:55.343Z,1015.62
2018-04-17T01:43:55.360Z,1015.66
2018-04-17T01:45:29.363Z,1015.68
2018-04-17T01:45:55.404Z,1015.63
2018-04-17T01:46:55.428Z,1015.71
2018-04-17T01:47:55.433Z,1015.67
2018-04-17T01:48:55.464Z,1015.67
2018-04-17T01:49:55.473Z,1015.66
2018-04-17T01:50:55.499Z,1015.69
2018-04-17T01:51:55.516Z,1015.67
2018-04-17T01:52:55.539Z,1015.69
2018-04-17T01:53:55.558Z,1015.69
2018-04-17T01:54:55.573Z,1015.68
2018-04-17T01:55:55.595Z,1015.65
2018-04-17T01:56:55.613Z,1015.65
2018-04-17T01:57:55.639Z,1015.64
2018-04-17T01:58:55.660Z,1015.62
2018-04-17T01:59:55.671Z,1015.62
2018-04-17T02:00:55.701Z,1015.66
2018-04-17T02:01:55.716Z,1015.64
2018-04-17T02:02:55.736Z,1015.63
2018-04-17T02:03:55.762Z,1015.66
2018-04-17T02:04:55.776Z,1015.62
2018-04-17T02:05:55.793Z,1015.61
2018-04-17T02:06:55.817Z,1015.63
2018-04-17T02:07:55.828Z,1015.63
2018-04-17T02:08:55.878Z,1015.63
2018-04-17T02:09:55.868Z,1015.63
2018-04-17T02:10:55.899Z,1015.62
2018-04-17T02:11:55.914Z,1015.62
2018-04-17T02:12:55.929Z,1015.57
2018-04-17T02:13:55.951Z,1015.59
2018-04-17T02:14:55.964Z,1015.60
2018-04-17T02:15:55.992Z,1015.62
2018-04-17T02:16:56.011Z,1015.56
2018-04-17T02:17:56.030Z,1015.61
2018-04-17T02:18:56.046Z,1015.62
2018-04-17T02:19:56.068Z,1015.66
2018-04-17T02:20:56.096Z,1015.73
2018-04-17T02:21:56.101Z,1015.73
2018-04-17T02:22:56.120Z,1015.70
2018-04-17T02:23:56.148Z,1015.72
2018-04-17T02:24:56.166Z,1015.72
2018-04-17T02:25:56.182Z,1015.71
2018-04-17T02:26:56.203Z,1015.82
2018-04-17T02:27:56.226Z,1015.78
2018-04-17T02:28:56.239Z,1015.79
2018-04-17T02:29:56.258Z,1015.79
2018-04-17T02:30:56.280Z,1015.81
2018-04-17T02:31:56.301Z,1015.78
2018-04-17T02:32:56.328Z,1015.83
2018-04-17T02:33:56.339Z,1015.88
2018-04-17T02:34:56.365Z,1015.85
2018-04-17T02:35:56.381Z,1015.84
2018-04-17T02:36:56.394Z,1015.87
2018-04-17T02:37:56.427Z,1015.87
2018-04-17T02:38:56.441Z,1015.90
2018-04-17T02:39:56.452Z,1015.91
2018-04-17T02:40:56.475Z,1015.95
2018-04-17T02:41:56.497Z,1015.96
2018-04-17T02:42:56.515Z,1016.01
2018-04-17T02:43:56.536Z,1015.97
2018-04-17T02:44:56.556Z,1016.00
2018-04-17T02:45:56.573Z,1015.99
2018-04-17T02:46:56.588Z,1016.00
2018-04-17T02:47:56.618Z,1016.02
2018-04-17T02:48:56.631Z,1016.03
2018-04-17T02:49:56.648Z,1016.02
2018-04-17T02:50:56.671Z,1016.01
2018-04-17T02:51:56.686Z,1015.99
2018-04-17T02:52:56.710Z,1016.01
2018-04-17T02:53:56.721Z,1016.04
2018-04-17T02:54:56.747Z,1016.04
2018-04-17T02:55:56.764Z,1016.04
2018-04-17T02:56:56.786Z,1016.07
2018-04-17T02:57:56.802Z,1016.03
2018-04-17T02:58:56.816Z,1016.01
2018-04-17T02:59:56.839Z,1016.04
2018-04-17T03:00:56.861Z,1016.05
2018-04-17T03:01:56.878Z,1015.98
2018-04-17T03:02:56.903Z,1016.01
2018-04-17T03:03:56.912Z,1016.00
2018-04-17T03:04:56.935Z,1015.99
2018-04-17T03:05:56.952Z,1015.97
2018-04-17T03:06:56.975Z,1015.99
2018-04-17T03:07:56.993Z,1015.95
2018-04-17T03:08:57.015Z,1015.98
2018-04-17T03:09:57.032Z,1015.95
2018-04-17T03:10:57.058Z,1015.94
2018-04-17T03:11:57.067Z,1015.96
2018-04-17T03:12:57.093Z,1015.99
2018-04-17T03:13:57.109Z,1015.93
2018-04-17T03:14:57.128Z,1015.95
2018-04-17T03:15:57.144Z,1015.94
2018-04-17T03:16:57.173Z,1015.93
2018-04-17T03:17:57.183Z,1015.96
2018-04-17T03:18:57.208Z,1015.96
2018-04-17T03:19:57.225Z,1015.96
2018-04-17T03:20:57.240Z,1015.97
2018-04-17T03:21:57.266Z,1015.92
2018-04-17T03:22:57.288Z,1015.97
2018-04-17T03:23:57.297Z,1015.96
2018-04-17T03:24:57.320Z,1016.02
2018-04-17T03:25:57.386Z,1015.97
2018-04-17T03:26:57.355Z,1016.01
2018-04-17T03:27:57.386Z,1016.07
2018-04-17T03:28:57.402Z,1016.07
2018-04-17T03:29:57.417Z,1016.07
2018-04-17T03:30:57.432Z,1016.03
2018-04-17T03:31:57.456Z,1016.07
2018-04-17T03:32:57.484Z,1016.05
2018-04-17T03:33:57.492Z,1016.06
2018-04-17T03:34:57.511Z,1016.03
2018-04-17T03:35:57.534Z,1016.05
2018-04-17T03:36:57.550Z,1016.07
2018-04-17T03:37:57.571Z,1016.04
2018-04-17T03:38:57.599Z,1016.07
2018-04-17T03:39:57.617Z,1016.10
2018-04-17T03:40:57.623Z,1016.03
2018-04-17T03:41:57.651Z,1016.04
2018-04-17T03:42:57.670Z,1016.04
2018-04-17T03:43:57.681Z,1016.03
2018-04-17T03:44:57.711Z,1016.10
2018-04-17T03:45:57.721Z,1016.05
2018-04-17T03:46:57.741Z,1016.07
2018-04-17T03:47:57.757Z,1016.05
2018-04-17T03:48:57.785Z,1016.05
2018-04-17T03:49:57.795Z,1016.05
2018-04-17T03:50:57.815Z,1016.02
2018-04-17T03:51:57.842Z,1016.06
2018-04-17T03:52:57.852Z,1016.04
2018-04-17T03:53:57.879Z,1016.04
2018-04-17T03:54:57.893Z,1016.02
2018-04-17T03:55:57.914Z,1016.04
2018-04-17T03:56:57.933Z,1016.06
2018-04-17T03:57:57.956Z,1016.04
2018-04-17T03:58:57.965Z,1016.03
2018-04-17T03:59:57.993Z,1016.04
2018-04-17T04:00:58.006Z,1016.07
2018-04-17T04:01:58.032Z,1016.04
2018-04-17T04:02:58.048Z,1016.02
2018-04-17T04:03:58.066Z,1016.09
2018-04-17T04:04:58.080Z,1016.10
2018-04-17T04:05:58.108Z,1016.04
2018-04-17T04:06:58.126Z,1016.08
2018-04-17T04:07:58.138Z,1016.12
2018-04-17T04:08:58.166Z,1016.11
2018-04-17T04:09:58.181Z,1016.06
2018-04-17T04:10:58.200Z,1016.10
2018-04-17T04:11:58.217Z,1016.14
2018-04-17T04:12:58.239Z,1016.15
2018-04-17T04:13:58.255Z,1016.16
2018-04-17T04:14:58.279Z,1016.16
2018-04-17T04:15:58.291Z,1016.21
2018-04-17T04:16:58.318Z,1016.17
2018-04-17T04:17:58.328Z,1016.16
2018-04-17T04:18:58.350Z,1016.19
2018-04-17T04:19:58.371Z,1016.23
2018-04-17T04:20:58.387Z,1016.25
2018-04-17T04:21:58.408Z,1016.20
2018-04-17T04:22:58.423Z,1016.22
2018-04-17T04:23:58.450Z,1016.21
2018-04-17T04:24:58.461Z,1016.25
2018-04-17T04:25:58.488Z,1016.30
2018-04-17T04:26:58.510Z,1016.20
2018-04-17T04:27:58.516Z,1016.27
2018-04-17T04:28:58.539Z,1016.27
2018-04-17T04:29:58.560Z,1016.27
2018-04-17T04:30:58.574Z,1016.29
2018-04-17T04:31:58.601Z,1016.37
2018-04-17T04:32:58.617Z,1016.36
2018-04-17T04:33:58.633Z,1016.38
2018-04-17T04:34:58.656Z,1016.41
2018-04-17T04:35:58.671Z,1016.38
2018-04-17T04:36:58.693Z,1016.42
2018-04-17T04:37:58.712Z,1016.42
2018-04-17T04:38:58.727Z,1016.47
2018-04-17T04:39:58.749Z,1016.45
2018-04-17T04:40:58.772Z,1016.47
2018-04-17T04:41:58.782Z,1016.51
2018-04-17T04:42:58.801Z,1016.51
2018-04-17T04:43:58.831Z,1016.46
2018-04-17T04:44:58.839Z,1016.50
2018-04-17T04:45:58.865Z,1016.50
2018-04-17T04:46:58.883Z,1016.51
2018-04-17T04:47:58.894Z,1016.55
2018-04-17T04:48:58.922Z,1016.58
2018-04-17T04:49:58.932Z,1016.57
2018-04-17T04:50:58.959Z,1016.61
2018-04-17T04:51:58.975Z,1016.60
2018-04-17T04:52:58.998Z,1016.61
2018-04-17T04:53:59.012Z,1016.63
2018-04-17T04:54:59.032Z,1016.64
2018-04-17T04:55:59.047Z,1016.68
2018-04-17T04:56:59.071Z,1016.68
2018-04-17T04:57:59.085Z,1016.70
2018-04-17T04:58:59.104Z,1016.70
2018-04-17T04:59:59.131Z,1016.68
2018-04-17T05:00:59.140Z,1016.67
2018-04-17T05:01:59.163Z,1016.72
2018-04-17T05:02:59.177Z,1016.77
2018-04-17T05:03:59.205Z,1016.73
2018-04-17T05:04:59.214Z,1016.81
2018-04-17T05:05:59.242Z,1016.81
2018-04-17T05:06:59.252Z,1016.83
2018-04-17T05:07:59.280Z,1016.85
2018-04-17T05:08:59.291Z,1016.85
2018-04-17T05:09:59.320Z,1016.85
2018-04-17T05:10:59.330Z,1016.92
2018-04-17T05:11:59.353Z,1016.93
2018-04-17T05:12:59.368Z,1016.92
2018-04-17T05:13:59.390Z,1016.93
2018-04-17T05:14:59.408Z,1017.01
2018-04-17T05:15:59.426Z,1017.01
2018-04-17T05:16:59.449Z,1017.03
2018-04-17T05:17:59.462Z,1017.05
2018-04-17T05:18:59.487Z,1017.05
2018-04-17T05:19:59.498Z,1017.08
2018-04-17T05:20:59.527Z,1017.11
2018-04-17T05:21:59.534Z,1017.11
2018-04-17T05:22:59.563Z,1017.13
2018-04-17T05:23:59.573Z,1017.12
2018-04-17T05:24:59.600Z,1017.09
2018-04-17T05:25:59.612Z,1017.16
2018-04-17T05:26:59.635Z,1017.18
2018-04-17T05:27:59.653Z,1017.20
2018-04-17T05:28:59.674Z,1017.22
2018-04-17T05:29:59.688Z,1017.26
2018-04-17T05:30:59.709Z,1017.34
2018-04-17T05:31:59.730Z,1017.34
2018-04-17T05:32:59.753Z,1017.37
2018-04-17T05:33:59.764Z,1017.38
2018-04-17T05:34:59.782Z,1017.45
2018-04-17T05:35:59.809Z,1017.46
2018-04-17T05:36:59.828Z,1017.53
2018-04-17T05:37:59.840Z,1017.47
2018-04-17T05:38:59.858Z,1017.54
2018-04-17T05:39:59.887Z,1017.59
2018-04-17T05:40:59.895Z,1017.59
2018-04-17T05:41:59.922Z,1017.63
2018-04-17T05:42:59.935Z,1017.62
2018-04-17T05:43:59.957Z,1017.63
2018-04-17T05:44:59.981Z,1017.70
2018-04-17T05:45:59.994Z,1017.69
2018-04-17T05:47:00.015Z,1017.72
2018-04-17T05:48:00.033Z,1017.71
2018-04-17T05:49:00.054Z,1017.77
2018-04-17T05:50:00.069Z,1017.71
2018-04-17T05:51:00.095Z,1017.71
2018-04-17T05:52:00.105Z,1017.73
2018-04-17T05:53:00.133Z,1017.78
2018-04-17T05:54:00.143Z,1017.79
2018-04-17T05:55:00.165Z,1017.78
2018-04-17T05:56:00.292Z,1017.85
2018-04-17T05:57:00.207Z,1017.81
2018-04-17T05:58:00.225Z,1017.91
2018-04-17T05:59:00.241Z,1017.94
2018-04-17T06:00:00.271Z,1017.96
2018-04-17T06:01:00.278Z,1018.02
2018-04-17T06:02:00.305Z,1017.99
2018-04-17T06:03:00.321Z,1018.05
2018-04-17T06:04:00.340Z,1018.00
2018-04-17T06:05:00.357Z,1018.00
2018-04-17T06:06:00.378Z,1018.03
2018-04-17T06:07:00.393Z,1017.94
2018-04-17T06:08:00.421Z,1017.97
2018-04-17T06:09:00.431Z,1017.93
2018-04-17T06:10:00.459Z,1017.94
2018-04-17T06:11:00.471Z,1017.97
2018-04-17T06:12:00.498Z,1017.94
2018-04-17T06:13:00.511Z,1017.97
2018-04-17T06:14:00.530Z,1017.98
2018-04-17T06:15:00.556Z,1018.00
2018-04-17T06:16:00.572Z,1018.04
2018-04-17T06:17:00.590Z,1018.10
2018-04-17T06:18:00.657Z,1018.07
2018-04-17T06:19:00.626Z,1018.05
2018-04-17T06:20:00.657Z,1018.15
2018-04-17T06:21:00.676Z,1018.15
2018-04-17T06:22:00.730Z,1018.11
2018-04-17T06:23:00.746Z,1018.11
2018-04-17T06:24:00.732Z,1018.07
2018-04-17T06:25:00.754Z,1018.07
2018-04-17T06:26:00.806Z,1018.07
2018-04-17T06:27:00.785Z,1018.10
2018-04-17T06:28:00.855Z,1018.30
2018-04-17T06:29:00.824Z,1018.45
2018-04-17T06:30:00.840Z,1018.46
2018-04-17T06:31:00.873Z,1018.49
2018-04-17T06:32:00.897Z,1018.50
2018-04-17T06:33:00.901Z,1018.55
2018-04-17T06:34:00.929Z,1018.60
2018-04-17T06:35:00.952Z,1018.72
2018-04-17T06:36:00.968Z,1018.82
2018-04-17T06:37:00.986Z,1018.91
2018-04-17T06:38:01.008Z,1019.21
2018-04-17T06:39:01.027Z,1019.45
2018-04-17T06:40:01.059Z,1019.81
2018-04-17T06:41:01.067Z,1020.27
2018-04-17T06:42:01.171Z,1020.44
2018-04-17T06:43:01.111Z,1020.49
2018-04-17T06:44:01.140Z,1020.58
2018-04-17T06:45:01.151Z,1020.71
2018-04-17T06:46:01.183Z,1021.20
2018-04-17T06:47:01.198Z,1022.02
2018-04-17T06:48:01.224Z,1022.23
2018-04-17T06:49:01.243Z,1022.37
2018-04-17T06:50:01.268Z,1022.41
2018-04-17T06:51:01.285Z,1022.65
2018-04-17T06:52:01.316Z,1022.92
2018-04-17T06:53:01.331Z,1023.10
2018-04-17T06:54:01.362Z,1022.78
2018-04-17T06:55:01.378Z,1022.27
2018-04-17T06:56:01.407Z,1021.97
2018-04-17T06:57:01.424Z,1021.39
2018-04-17T06:58:01.470Z,1021.09
2018-04-17T06:59:01.549Z,1020.97
2018-04-17T07:00:01.499Z,1020.92
2018-04-17T07:01:01.520Z,1020.73
2018-04-17T07:02:01.546Z,1020.67
2018-04-17T07:03:01.563Z,1020.73
2018-04-17T07:04:01.596Z,1020.57
2018-04-17T07:05:01.613Z,1020.41
2018-04-17T07:06:01.644Z,1020.14
2018-04-17T07:07:01.668Z,1020.00
2018-04-17T07:08:01.688Z,1020.36
2018-04-17T07:09:01.712Z,1020.18
2018-04-17T07:10:01.739Z,1019.65
2018-04-17T07:11:01.764Z,1019.81
2018-04-17T07:12:01.786Z,1019.98
2018-04-17T07:13:01.807Z,1019.66
2018-04-17T07:14:01.840Z,1019.52
2018-04-17T07:15:01.862Z,1019.34
2018-04-17T07:16:01.889Z,1019.16
2018-04-17T07:17:01.960Z,1019.13
2018-04-17T07:18:01.934Z,1019.24
2018-04-17T07:19:01.970Z,1019.48
2018-04-17T07:20:01.982Z,1019.44
2018-04-17T07:21:02.009Z,1019.20
2018-04-17T07:22:02.037Z,1019.14
2018-04-17T07:23:02.064Z,1019.24
2018-04-17T07:24:02.088Z,1019.25
2018-04-17T07:25:02.109Z,1019.22
2018-04-17T07:26:02.142Z,1019.28
2018-04-17T07:27:02.168Z,1019.26
2018-04-17T07:28:02.185Z,1019.19
2018-04-17T07:29:02.213Z,1019.19
2018-04-17T07:30:02.242Z,1019.18
2018-04-17T07:31:02.264Z,1019.24
2018-04-17T07:32:02.299Z,1019.43
2018-04-17T07:33:02.317Z,1019.37
2018-04-17T07:34:02.340Z,1019.20
2018-04-17T07:35:02.371Z,1019.15
2018-04-17T07:36:02.395Z,1019.39
2018-04-17T07:37:02.418Z,1019.42
2018-04-17T07:38:02.453Z,1019.46
2018-04-17T07:39:02.473Z,1019.40
2018-04-17T07:40:02.507Z,1019.49
2018-04-17T07:41:02.531Z,1019.46
2018-04-17T07:42:02.551Z,1019.43
2018-04-17T07:43:02.578Z,1019.25
2018-04-17T07:44:02.613Z,1019.28
2018-04-17T07:45:02.638Z,1019.15
2018-04-17T07:46:02.662Z,1019.12
2018-04-17T07:47:02.691Z,1019.10
2018-04-17T07:48:02.724Z,1019.13
2018-04-17T07:49:02.762Z,1019.10
2018-04-17T07:50:02.781Z,1019.08
2018-04-17T07:51:02.804Z,1019.00
2018-04-17T07:52:02.821Z,1018.96
2018-04-17T07:53:02.852Z,1019.01
2018-04-17T07:54:02.882Z,1019.00
2018-04-17T07:55:02.903Z,1018.91
2018-04-17T07:56:02.938Z,1018.98
2018-04-17T07:57:02.963Z,1018.94
2018-04-17T07:58:02.987Z,1018.98
2018-04-17T07:59:03.014Z,1019.00
2018-04-17T08:00:03.048Z,1018.94
2018-04-17T08:01:03.094Z,1018.95
2018-04-17T08:02:03.132Z,1018.98
2018-04-17T08:03:03.159Z,1018.98
2018-04-17T08:04:03.185Z,1019.01
2018-04-17T08:05:03.260Z,1019.02
2018-04-17T08:06:03.215Z,1019.04
2018-04-17T08:07:03.270Z,1019.06
2018-04-17T08:08:03.264Z,1019.10
2018-04-17T08:09:03.290Z,1019.10
2018-04-17T08:10:03.372Z,1019.10
2018-04-17T08:11:03.349Z,1019.14
2018-04-17T08:12:03.424Z,1019.11
2018-04-17T08:13:03.424Z,1019.14
2018-04-17T08:14:03.449Z,1019.19
2018-04-17T08:15:03.516Z,1019.40
2018-04-17T08:16:03.490Z,1019.67
2018-04-17T08:17:03.577Z,1019.73
2018-04-17T08:18:03.547Z,1019.90
2018-04-17T08:19:03.577Z,1019.99
2018-04-17T08:20:03.677Z,1019.96
2018-04-17T08:21:03.657Z,1019.95
2018-04-17T08:22:03.705Z,1020.02
2018-04-17T08:23:03.737Z,1020.05
2018-04-17T08:24:03.783Z,1020.03
2018-04-17T08:25:03.931Z,1020.04
2018-04-17T08:26:03.821Z,1019.96
2018-04-17T08:27:03.854Z,1020.02
2018-04-17T08:28:03.864Z,1020.02
2018-04-17T08:29:03.906Z,1020.01
2018-04-17T08:30:04.014Z,1019.92
2018-04-17T08:31:04.005Z,1019.94
2018-04-17T08:32:04.039Z,1019.98
2018-04-17T08:33:04.068Z,1019.96
2018-04-17T08:34:04.085Z,1019.92
2018-04-17T08:35:04.110Z,1019.92
2018-04-17T08:36:04.157Z,1019.93
2018-04-17T08:37:04.208Z,1019.95
2018-04-17T08:38:04.205Z,1019.92
2018-04-17T08:39:04.229Z,1019.97
2018-04-17T08:40:04.412Z,1019.99
2018-04-17T08:41:04.293Z,1019.91
2018-04-17T08:42:04.338Z,1019.85
2018-04-17T08:43:04.348Z,1019.88
2018-04-17T08:44:04.331Z,1019.82
2018-04-17T08:45:04.527Z,1019.79
2018-04-17T08:46:04.457Z,1019.85
2018-04-17T08:47:04.476Z,1019.80
2018-04-17T08:48:04.517Z,1019.81
2018-04-17T08:49:04.528Z,1019.81
2018-04-17T08:50:04.598Z,1019.76
2018-04-17T08:51:04.571Z,1019.78
2018-04-17T08:52:04.588Z,1019.77
2018-04-17T08:53:04.617Z,1019.77
2018-04-17T08:54:04.655Z,1019.79
2018-04-17T08:55:04.792Z,1019.72
2018-04-17T08:56:04.721Z,1019.73
2018-04-17T08:57:04.706Z,1019.72
2018-04-17T08:58:04.740Z,1019.71
2018-04-17T08:59:04.795Z,1019.69
2018-04-17T09:00:04.877Z,1019.72
2018-04-17T09:01:04.821Z,1019.70
2018-04-17T09:02:04.859Z,1019.61
2018-04-17T09:03:04.891Z,1019.66
2018-04-17T09:04:04.911Z,1019.70
2018-04-17T09:05:04.945Z,1019.70
2018-04-17T09:06:04.979Z,1019.67
2018-04-17T09:07:05.007Z,1019.68
2018-04-17T09:08:05.040Z,1019.71
2018-04-17T09:09:05.066Z,1019.69
2018-04-17T09:10:05.095Z,1019.68
2018-04-17T09:11:05.134Z,1019.62
2018-04-17T09:12:05.164Z,1019.61
2018-04-17T09:13:05.192Z,1019.62
2018-04-17T09:14:05.217Z,1019.59
2018-04-17T09:15:05.248Z,1019.55
2018-04-17T09:16:05.285Z,1019.52
2018-04-17T09:17:05.369Z,1019.53
2018-04-17T09:18:05.336Z,1019.52
2018-04-17T09:19:05.373Z,1019.54
2018-04-17T09:20:05.846Z,1019.53
2018-04-17T09:21:05.428Z,1019.55
2018-04-17T09:22:05.467Z,1019.62
2018-04-17T09:23:05.495Z,1019.61
2018-04-17T09:24:05.524Z,1019.61
2018-04-17T09:25:05.561Z,1019.57
2018-04-17T09:26:05.591Z,1019.55
2018-04-17T09:27:05.622Z,1019.52
2018-04-17T09:28:05.650Z,1019.58
2018-04-17T09:29:05.689Z,1019.57
2018-04-17T09:30:05.709Z,1019.60
2018-04-17T09:31:05.737Z,1019.60
2018-04-17T09:32:05.775Z,1019.61
2018-04-17T09:33:05.846Z,1019.62
2018-04-17T09:34:05.853Z,1019.58
2018-04-17T09:35:05.941Z,1019.64
2018-04-17T09:36:05.964Z,1019.52
2018-04-17T09:37:05.925Z,1019.52
2018-04-17T09:38:05.957Z,1019.33
2018-04-17T09:39:05.996Z,1019.37
2018-04-17T09:40:06.015Z,1019.54
2018-04-17T09:41:06.055Z,1019.60
2018-04-17T09:42:06.081Z,1019.60
2018-04-17T09:43:06.114Z,1019.60
2018-04-17T09:44:06.147Z,1019.60
2018-04-17T09:45:06.176Z,1019.61
2018-04-17T09:46:06.203Z,1019.56
2018-04-17T09:47:06.240Z,1019.60
2018-04-17T09:48:06.272Z,1019.55
2018-04-17T09:49:06.294Z,1019.58
2018-04-17T09:50:06.333Z,1019.61
2018-04-17T09:51:06.368Z,1019.57
2018-04-17T09:52:06.388Z,1019.63
2018-04-17T09:53:06.430Z,1019.59
2018-04-17T09:54:06.455Z,1019.66
2018-04-17T09:55:06.489Z,1019.53
2018-04-17T09:56:06.519Z,1019.65
2018-04-17T09:57:06.548Z,1019.60
2018-04-17T09:58:06.575Z,1019.55
2018-04-17T09:59:06.620Z,1019.52
2018-04-17T10:00:06.645Z,1019.45
2018-04-17T10:01:06.669Z,1019.42
2018-04-17T10:02:06.709Z,1019.39
2018-04-17T10:03:06.742Z,1019.34
2018-04-17T10:04:06.764Z,1019.35
2018-04-17T10:05:06.799Z,1019.22
2018-04-17T10:06:06.833Z,1019.46
2018-04-17T10:07:06.864Z,1019.42
2018-04-17T10:08:06.891Z,1019.44
2018-04-17T10:09:06.995Z,1019.44
2018-04-17T10:10:06.960Z,1019.49
2018-04-17T10:11:06.982Z,1019.42
2018-04-17T10:12:07.023Z,1019.38
2018-04-17T10:13:07.044Z,1019.40
2018-04-17T10:14:07.078Z,1019.41
2018-04-17T10:15:07.114Z,1019.45
2018-04-17T10:16:07.135Z,1019.40
2018-04-17T10:17:07.169Z,1019.41
2018-04-17T10:18:07.204Z,1019.39
2018-04-17T10:19:07.227Z,1019.38
2018-04-17T10:20:07.269Z,1019.35
2018-04-17T10:21:07.292Z,1019.38
2018-04-17T10:22:07.329Z,1019.36
2018-04-17T10:23:07.401Z,1019.42
2018-04-17T10:24:07.392Z,1019.46
2018-04-17T10:25:07.467Z,1019.43
2018-04-17T10:26:07.453Z,1019.39
2018-04-17T10:27:07.477Z,1019.40
2018-04-17T10:28:07.514Z,1019.40
2018-04-17T10:29:07.541Z,1019.40
2018-04-17T10:30:07.576Z,1019.38
2018-04-17T10:31:07.603Z,1019.35
2018-04-17T10:32:07.639Z,1019.37
2018-04-17T10:33:07.670Z,1019.37
2018-04-17T10:34:07.702Z,1019.33
2018-04-17T10:35:07.727Z,1019.40
2018-04-17T10:36:07.760Z,1019.41
2018-04-17T10:37:07.787Z,1019.45
2018-04-17T10:38:07.820Z,1019.47
2018-04-17T10:39:07.847Z,1019.44
2018-04-17T10:40:07.887Z,1019.41
2018-04-17T10:41:07.910Z,1019.49
2018-04-17T10:42:07.947Z,1019.50
2018-04-17T10:43:07.970Z,1019.44
2018-04-17T10:44:08.009Z,1019.48
2018-04-17T10:45:08.031Z,1019.44
2018-04-17T10:46:08.070Z,1019.32
2018-04-17T10:47:08.097Z,1019.55
2018-04-17T10:48:08.129Z,1018.80
2018-04-17T10:49:08.158Z,1018.77
2018-04-17T10:50:08.193Z,1018.86
2018-04-17T10:51:08.216Z,1018.61
2018-04-17T10:52:08.257Z,1018.54
2018-04-17T10:53:08.278Z,1019.36
2018-04-17T10:54:08.315Z,1019.36
2018-04-17T10:55:08.386Z,1019.15
2018-04-17T10:56:08.377Z,1019.18
2018-04-17T10:57:08.402Z,1019.14
2018-04-17T10:58:08.436Z,1018.76
2018-04-17T10:59:08.469Z,1019.30
2018-04-17T11:00:08.498Z,1019.27
2018-04-17T11:01:08.531Z,1019.34
2018-04-17T11:02:08.553Z,1019.28
2018-04-17T11:03:08.610Z,1019.24
2018-04-17T11:04:08.621Z,1019.23
2018-04-17T11:05:08.644Z,1019.20
2018-04-17T11:06:08.681Z,1019.20
2018-04-17T11:07:08.707Z,1019.13
2018-04-17T11:08:08.740Z,1019.16
2018-04-17T11:09:08.773Z,1019.17
2018-04-17T11:10:08.964Z,1019.25
2018-04-17T11:11:08.827Z,1019.28
2018-04-17T11:12:08.865Z,1019.25
2018-04-17T11:13:08.893Z,1019.20
2018-04-17T11:14:08.920Z,1019.26
2018-04-17T11:15:08.956Z,1019.17
2018-04-17T11:16:08.990Z,1019.20
2018-04-17T11:17:09.012Z,1019.22
2018-04-17T11:18:09.044Z,1019.23
2018-04-17T11:19:09.081Z,1019.29
2018-04-17T11:20:09.105Z,1019.31
2018-04-17T11:21:09.139Z,1019.28
2018-04-17T11:22:09.171Z,1019.24
2018-04-17T11:23:09.251Z,1019.23
2018-04-17T11:24:09.236Z,1019.21
2018-04-17T11:25:09.266Z,1019.19
2018-04-17T11:26:09.293Z,1019.22
2018-04-17T11:27:09.327Z,1019.17
2018-04-17T11:28:09.358Z,1019.22
2018-04-17T11:29:09.491Z,1019.22
2018-04-17T11:30:09.422Z,1019.19
2018-04-17T11:31:09.450Z,1019.15
2018-04-17T11:32:09.483Z,1019.20
2018-04-17T11:33:09.512Z,1019.20
2018-04-17T11:34:09.551Z,1019.17
2018-04-17T11:35:09.572Z,1019.17
2018-04-17T11:36:09.612Z,1019.20
2018-04-17T11:37:09.634Z,1019.24
2018-04-17T11:38:09.675Z,1019.22
2018-04-17T11:39:09.706Z,1019.27
2018-04-17T11:40:09.731Z,1019.25
2018-04-17T11:41:09.770Z,1019.25
2018-04-17T11:42:09.792Z,1019.20
2018-04-17T11:43:09.831Z,1019.21
2018-04-17T11:44:09.860Z,1019.20
2018-04-17T11:45:09.894Z,1019.17
2018-04-17T11:46:09.931Z,1019.15
2018-04-17T11:47:09.951Z,1019.23
2018-04-17T11:48:09.998Z,1019.17
2018-04-17T11:49:10.020Z,1019.25
2018-04-17T11:50:10.055Z,1019.21
2018-04-17T11:51:10.082Z,1019.19
2018-04-17T11:52:10.118Z,1019.19
2018-04-17T11:53:10.183Z,1019.20
2018-04-17T11:54:10.204Z,1019.19
2018-04-17T11:55:10.293Z,1019.20
2018-04-17T11:56:10.328Z,1019.16
2018-04-17T11:57:10.359Z,1019.11
2018-04-17T11:58:10.377Z,1019.14
2018-04-17T11:59:10.431Z,1019.13
2018-04-17T12:00:10.549Z,1019.16
2018-04-17T12:01:10.481Z,1019.10
2018-04-17T12:02:10.508Z,1019.13
2018-04-17T12:03:10.550Z,1019.16
2018-04-17T12:04:10.566Z,1019.28
2018-04-17T12:05:10.698Z,1019.28
2018-04-17T12:06:10.640Z,1019.33